This is the latest recevied weather packets stored in our database for station/object GW1549. If no packets are shown the sender has not sent any weather packets the latest 10 day(s).
| Time | Temp. | Humidity | Pressure | Rain* | Wind** | Luminosity | Snow |
|---|---|---|---|---|---|---|---|
| 1778096393 | 15.56° C | 74% | 1006 hPa | 13.72 mm | - | - | - |
| 1778094943 | 16.11° C | 74% | 1005.7 hPa | 13.72 mm | - | - | - |
| 1778094221 | 15.56° C | 77% | 1006 hPa | 13.72 mm | - | - | - |
| 1778092760 | 15.56° C | 77% | 1006 hPa | 13.72 mm | - | - | - |
| 1778089887 | 15° C | 78% | 1006.4 hPa | 13.72 mm | - | - | - |
| 1778085586 | 12.78° C | 87% | 1006 hPa | 13.72 mm | - | - | - |
| 1778084869 | 12.22° C | 92% | 1006 hPa | 13.72 mm | - | - | - |
| 1778084146 | 11.11° C | 98% | 1006.4 hPa | 13.72 mm | - | - | - |
| 1778080174 | 10.56° C | 99% | 1006 hPa | 13.72 mm | - | - | - |
| 1778079791 | 10.56° C | 99% | 1005.4 hPa | 13.72 mm | - | - | - |
| 1778077277 | 10.56° C | 99% | 1005 hPa | 13.72 mm | - | - | - |
| 1778076575 | 10.56° C | 99% | 1004.7 hPa | 13.72 mm | - | - | - |
| 1778074430 | 11.11° C | 99% | 1004.4 hPa | 13.72 mm | - | - | - |
| 1778071906 | 12.22° C | 99% | 1003 hPa | 13.21 mm | - | - | - |
| 1778070800 | 12.22° C | 99% | 1002.7 hPa | 13.21 mm | - | - | - |
| 1778070435 | 12.78° C | 99% | 1002.7 hPa | 13.21 mm | - | - | - |
| 1778067588 | 13.89° C | 99% | 1001.6 hPa | 13.21 mm | - | - | - |
| 1778065753 | 13.89° C | 99% | 1001.3 hPa | 13.21 mm | - | - | - |
| 1778063631 | 13.89° C | 99% | 1001 hPa | 12.95 mm | - | - | - |
| 1778059273 | 13.89° C | 99% | 1001.3 hPa | 11.68 mm | - | - | - |
| 1778057856 | 13.89° C | 99% | 1001.3 hPa | 10.41 mm | - | - | - |
| 1778056766 | 13.89° C | 99% | 1001.3 hPa | 9.91 mm | - | - | - |
| 1778056417 | 13.89° C | 99% | 1001.3 hPa | 9.91 mm | - | - | - |
| 1778052789 | 14.44° C | 97% | 1001 hPa | 7.62 mm | - | - | - |
| 1778052103 | 14.44° C | 97% | 1001.3 hPa | 6.1 mm | - | - | - |
* Rain since midnight (hover to see other rain measurements)
** Current wind speed in m/s (hover to see current wind gust speed)